createdAt,value
2018-04-02T00:01:40.640Z,29.53
2018-04-02T00:04:11.111Z,32.43
2018-04-02T00:06:41.705Z,27.70
2018-04-02T00:09:12.181Z,21.17
2018-04-02T00:11:43.655Z,23.08
2018-04-02T00:14:14.889Z,20.83
2018-04-02T00:16:46.106Z,23.80
2018-04-02T00:19:16.548Z,18.77
2018-04-02T00:21:47.030Z,16.58
2018-04-02T00:24:17.452Z,28.53
2018-04-02T00:26:47.890Z,21.23
2018-04-02T00:29:18.356Z,24.25
2018-04-02T00:31:48.807Z,23.60
2018-04-02T00:34:19.347Z,20.03
2018-04-02T00:36:49.806Z,19.40
2018-04-02T00:39:20.259Z,19.57
2018-04-02T00:41:50.818Z,22.57
2018-04-02T00:44:22.990Z,28.50
2018-04-02T00:46:53.896Z,24.03
2018-04-02T00:49:24.387Z,24.57
2018-04-02T00:51:54.855Z,24.77
2018-04-02T00:54:26.018Z,25.23
2018-04-02T00:56:57.273Z,36.13
2018-04-02T00:59:27.733Z,31.30
2018-04-02T01:01:58.186Z,31.77
2018-04-02T01:04:28.656Z,24.00
2018-04-02T01:06:59.491Z,35.23
2018-04-02T01:09:30.760Z,25.40
2018-04-02T01:12:02.620Z,21.43
2018-04-02T01:14:34.077Z,22.10
2018-04-02T01:17:04.551Z,22.50
2018-04-02T01:19:36.202Z,18.90
2018-04-02T01:22:07.406Z,20.37
2018-04-02T01:24:37.862Z,25.55
2018-04-02T01:27:08.309Z,33.67
2018-04-02T01:29:39.530Z,21.60
2018-04-02T01:32:09.970Z,23.47
2018-04-02T01:34:40.794Z,36.97
2018-04-02T01:37:11.263Z,23.40
2018-04-02T01:39:41.762Z,20.47
2018-04-02T01:42:12.238Z,19.73
2018-04-02T01:44:42.674Z,18.85
2018-04-02T01:47:13.167Z,25.80
2018-04-02T01:49:44.423Z,21.33
2018-04-02T01:52:14.940Z,22.70
2018-04-02T01:54:46.183Z,19.30
2018-04-02T01:57:17.438Z,19.33
2018-04-02T01:59:48.297Z,24.60
2018-04-02T02:02:19.724Z,28.90
2018-04-02T02:04:50.168Z,20.60
2018-04-02T02:07:20.646Z,25.50
2018-04-02T02:09:51.123Z,20.57
2018-04-02T02:12:21.595Z,25.37
2018-04-02T02:14:52.107Z,21.63
2018-04-02T02:17:22.559Z,21.43
2018-04-02T02:19:53.065Z,23.17
2018-04-02T02:22:23.513Z,20.23
2018-04-02T02:24:54.070Z,21.57
2018-04-02T02:27:25.280Z,18.23
2018-04-02T02:29:55.745Z,21.07
2018-04-02T02:32:26.660Z,20.00
2018-04-02T02:34:58.171Z,26.43
2018-04-02T02:37:29.284Z,34.03
2018-04-02T02:39:59.745Z,21.60
2018-04-02T02:42:30.307Z,29.07
2018-04-02T02:45:00.914Z,18.37
2018-04-02T02:47:31.571Z,28.40
2018-04-02T02:50:02.031Z,27.27
2018-04-02T02:52:32.542Z,38.33
2018-04-02T02:55:04.694Z,29.27
2018-04-02T02:57:35.152Z,26.43
2018-04-02T03:00:05.686Z,21.73
2018-04-02T03:02:36.174Z,35.50
2018-04-02T03:05:06.691Z,27.30
2018-04-02T03:07:37.160Z,27.95
2018-04-02T03:10:07.634Z,35.13
2018-04-02T03:12:38.074Z,29.13
2018-04-02T03:15:08.548Z,23.73
2018-04-02T03:17:39.014Z,24.90
2018-04-02T03:20:09.462Z,26.20
2018-04-02T03:22:39.937Z,31.70
2018-04-02T03:25:10.434Z,28.03
2018-04-02T03:27:41.619Z,34.10
2018-04-02T03:30:12.091Z,27.30
2018-04-02T03:32:42.854Z,33.23
2018-04-02T03:35:14.426Z,21.73
2018-04-02T03:37:45.701Z,38.22
2018-04-02T03:40:16.244Z,28.57
2018-04-02T03:42:46.711Z,28.85
2018-04-02T03:45:18.848Z,27.73
2018-04-02T03:47:49.310Z,33.90
2018-04-02T03:50:19.854Z,29.00
2018-04-02T03:52:50.307Z,33.77
2018-04-02T03:55:20.793Z,29.67
2018-04-02T03:57:51.251Z,33.20
2018-04-02T04:00:21.706Z,35.53
2018-04-02T04:02:52.163Z,25.97
2018-04-02T04:05:23.385Z,32.93
2018-04-02T04:07:54.455Z,25.00
2018-04-02T04:10:25.730Z,27.00
2018-04-02T04:12:56.162Z,31.03
2018-04-02T04:15:26.656Z,34.77
2018-04-02T04:17:57.914Z,27.17
2018-04-02T04:20:29.563Z,36.07
2018-04-02T04:23:00.035Z,27.90
2018-04-02T04:25:31.450Z,30.37
2018-04-02T04:28:01.942Z,29.27
2018-04-02T04:30:33.198Z,24.87
2018-04-02T04:33:04.426Z,19.00
2018-04-02T04:35:34.931Z,19.33
2018-04-02T04:38:05.382Z,18.85
2018-04-02T04:40:35.856Z,21.97
2018-04-02T04:43:06.344Z,22.07
2018-04-02T04:45:37.614Z,21.95
2018-04-02T04:48:08.082Z,20.40
2018-04-02T04:50:38.807Z,20.12
2018-04-02T04:53:09.410Z,20.87
2018-04-02T04:55:40.020Z,19.10
2018-04-02T04:58:11.277Z,21.40
2018-04-02T05:00:42.531Z,28.77
2018-04-02T05:03:12.995Z,35.33
2018-04-02T05:05:43.475Z,37.83
2018-04-02T05:08:13.942Z,41.90
2018-04-02T05:10:45.354Z,31.13
2018-04-02T05:13:16.753Z,35.60
2018-04-02T05:15:47.202Z,42.62
2018-04-02T05:18:17.655Z,40.03
2018-04-02T05:20:48.883Z,33.53
2018-04-02T05:23:20.135Z,31.77
2018-04-02T05:25:51.403Z,26.40
2018-04-02T05:28:21.983Z,20.60
2018-04-02T05:30:52.436Z,22.83
2018-04-02T05:33:23.672Z,20.30
2018-04-02T05:35:54.440Z,18.50
2018-04-02T05:38:25.191Z,17.87
2018-04-02T05:40:55.709Z,16.95
2018-04-02T05:43:26.203Z,17.53
2018-04-02T05:45:58.423Z,21.03
2018-04-02T05:48:29.759Z,19.70
2018-04-02T05:51:00.309Z,28.70
2018-04-02T05:53:30.758Z,24.97
2018-04-02T05:56:01.570Z,19.63
2018-04-02T05:58:32.015Z,18.00
2018-04-02T06:01:02.473Z,19.27
2018-04-02T06:03:33.341Z,20.23
2018-04-02T06:06:03.780Z,30.40
2018-04-02T06:08:34.272Z,21.57
2018-04-02T06:11:05.491Z,24.00
2018-04-02T06:13:35.950Z,23.80
2018-04-02T06:16:07.162Z,24.57
2018-04-02T06:18:38.436Z,25.63
2018-04-02T06:21:09.690Z,19.70
2018-04-02T06:23:41.110Z,21.27
2018-04-02T06:26:12.374Z,28.80
2018-04-02T06:28:43.656Z,23.98
2018-04-02T06:31:14.126Z,19.37
2018-04-02T06:33:44.590Z,17.83
2018-04-02T06:36:15.410Z,18.70
2018-04-02T06:38:46.774Z,20.67
2018-04-02T06:41:17.226Z,21.60
2018-04-02T06:43:47.684Z,20.15
2018-04-02T06:46:18.184Z,18.30
2018-04-02T06:48:48.659Z,20.85
2018-04-02T06:51:19.869Z,17.07
2018-04-02T06:53:50.354Z,16.17
2018-04-02T06:56:20.822Z,14.80
2018-04-02T06:58:51.278Z,20.42
2018-04-02T07:01:22.574Z,24.67
2018-04-02T07:06:28.802Z,17.80
2018-04-02T07:08:59.258Z,16.43
2018-04-02T07:11:29.761Z,15.10
2018-04-02T07:14:00.235Z,20.27
2018-04-02T07:16:30.683Z,18.27
2018-04-02T07:19:01.142Z,17.10
2018-04-02T07:21:31.599Z,21.37
2018-04-02T07:24:02.080Z,15.90
2018-04-02T07:26:32.544Z,25.23
2018-04-02T07:29:03.790Z,19.70
2018-04-02T07:31:35.233Z,21.83
2018-04-02T07:34:06.490Z,23.13
2018-04-02T07:36:37.506Z,17.17
2018-04-02T07:39:09.826Z,21.97
2018-04-02T07:41:40.306Z,28.90
2018-04-02T07:44:10.758Z,23.03
2018-04-02T07:46:41.978Z,25.47
2018-04-02T07:49:12.677Z,22.80
2018-04-02T07:51:43.195Z,22.93
2018-04-02T07:54:13.749Z,25.67
2018-04-02T07:56:44.339Z,27.85
2018-04-02T07:59:14.826Z,21.37
2018-04-02T08:01:45.341Z,28.83
2018-04-02T08:04:16.024Z,21.77
2018-04-02T08:06:46.582Z,21.47
2018-04-02T08:09:17.105Z,23.70
2018-04-02T08:11:47.767Z,23.00
2018-04-02T08:14:18.843Z,26.20
2018-04-02T08:16:51.042Z,21.92
2018-04-02T08:19:21.587Z,24.53
2018-04-02T08:21:52.050Z,21.60
2018-04-02T08:24:23.642Z,26.83
2018-04-02T08:26:54.356Z,18.53
2018-04-02T08:29:25.148Z,28.20
2018-04-02T08:31:55.676Z,19.80
2018-04-02T08:34:26.193Z,28.40
2018-04-02T08:36:56.787Z,23.25
2018-04-02T08:39:28.453Z,21.10
2018-04-02T08:41:59.029Z,19.50
2018-04-02T08:44:29.499Z,20.00
2018-04-02T08:47:00.105Z,17.67
2018-04-02T08:49:32.027Z,26.20
2018-04-02T08:52:02.588Z,18.33
2018-04-02T08:54:34.803Z,24.13
2018-04-02T08:57:05.508Z,27.20
2018-04-02T08:59:36.499Z,24.83
2018-04-02T09:02:06.991Z,21.40
2018-04-02T09:04:37.528Z,27.30
2018-04-02T09:09:42.905Z,28.27
2018-04-02T09:12:13.486Z,20.90
2018-04-02T09:14:44.857Z,22.10
2018-04-02T09:17:16.346Z,25.87
2018-04-02T09:19:46.907Z,22.23
2018-04-02T09:22:17.506Z,17.90
2018-04-02T09:24:48.537Z,21.37
2018-04-02T09:27:19.570Z,20.67
2018-04-02T09:29:50.074Z,23.23
2018-04-02T09:32:20.893Z,26.50
2018-04-02T09:34:52.462Z,22.10
2018-04-02T09:37:23.788Z,19.23
2018-04-02T09:39:54.264Z,17.27
2018-04-02T09:42:24.803Z,20.90
2018-04-02T09:44:55.304Z,17.37
2018-04-02T09:47:25.798Z,17.47
2018-04-02T09:49:56.490Z,18.70
2018-04-02T09:52:27.182Z,19.00
2018-04-02T09:54:59.426Z,19.80
2018-04-02T09:57:29.997Z,18.47
2018-04-02T10:00:00.476Z,17.02
2018-04-02T10:02:35.902Z,24.73
2018-04-02T10:05:08.370Z,16.23
2018-04-02T10:07:40.648Z,15.23
2018-04-02T10:10:11.229Z,17.10
2018-04-02T10:12:42.583Z,15.07
2018-04-02T10:15:13.159Z,25.27
2018-04-02T10:17:43.992Z,17.13
2018-04-02T10:20:14.624Z,14.70
2018-04-02T10:22:45.162Z,18.80
2018-04-02T10:25:15.725Z,14.53
2018-04-02T10:27:46.955Z,14.60
2018-04-02T10:30:17.755Z,15.57
2018-04-02T10:32:48.488Z,13.80
2018-04-02T10:35:18.974Z,15.57
2018-04-02T10:37:50.181Z,15.43
2018-04-02T10:40:21.869Z,19.70
2018-04-02T10:42:54.023Z,19.00
2018-04-02T10:45:24.791Z,14.40
2018-04-02T10:47:55.342Z,14.50
2018-04-02T10:50:25.807Z,16.33
2018-04-02T10:52:56.309Z,17.02
2018-04-02T10:55:26.766Z,16.83
2018-04-02T10:57:57.227Z,17.30
2018-04-02T11:00:27.715Z,18.63
2018-04-02T11:02:58.211Z,17.00
2018-04-02T11:05:29.602Z,18.00
2018-04-02T11:08:00.083Z,16.77
2018-04-02T11:10:30.554Z,20.40
2018-04-02T11:13:00.986Z,16.95
2018-04-02T11:15:32.442Z,20.60
2018-04-02T11:18:03.673Z,22.17
2018-04-02T11:20:34.686Z,19.87
2018-04-02T11:23:05.147Z,19.90
2018-04-02T11:25:35.614Z,25.03
2018-04-02T11:28:06.095Z,35.73
2018-04-02T11:30:36.553Z,21.03
2018-04-02T11:33:07.976Z,19.27
2018-04-02T11:35:39.136Z,23.37
2018-04-02T11:38:10.443Z,18.77
2018-04-02T11:40:41.050Z,21.13
2018-04-02T11:43:11.523Z,19.77
2018-04-02T11:45:42.002Z,22.13
2018-04-02T11:48:12.755Z,21.03
2018-04-02T11:50:43.316Z,33.33
2018-04-02T11:53:13.791Z,18.13
2018-04-02T11:55:44.267Z,33.03
2018-04-02T11:58:14.734Z,29.70
2018-04-02T12:00:45.244Z,17.90
2018-04-02T12:03:16.481Z,22.37
2018-04-02T12:05:47.714Z,20.87
2018-04-02T12:08:18.165Z,23.13
2018-04-02T12:10:49.452Z,28.92
2018-04-02T12:13:20.003Z,20.53
2018-04-02T12:15:51.406Z,18.05
2018-04-02T12:18:21.879Z,24.83
2018-04-02T12:20:52.398Z,22.50
2018-04-02T12:23:22.890Z,27.20
2018-04-02T12:25:53.449Z,31.63
2018-04-02T12:28:23.928Z,22.70
2018-04-02T12:30:55.142Z,24.33
2018-04-02T12:33:25.609Z,21.70
2018-04-02T12:35:56.649Z,26.55
2018-04-02T12:38:29.042Z,25.53
2018-04-02T12:41:00.122Z,23.87
2018-04-02T12:43:30.611Z,18.83
2018-04-02T12:46:01.811Z,22.50
2018-04-02T12:48:32.356Z,26.40
2018-04-02T12:51:04.614Z,25.00
2018-04-02T12:53:35.895Z,22.17
2018-04-02T12:56:06.420Z,24.70
2018-04-02T12:58:37.483Z,26.87
2018-04-02T13:01:07.951Z,22.37
2018-04-02T13:03:38.420Z,19.93
2018-04-02T13:06:09.090Z,17.73
2018-04-02T13:08:39.572Z,22.17
2018-04-02T13:11:10.068Z,29.37
2018-04-02T13:13:41.766Z,23.20
2018-04-02T13:16:12.246Z,20.17
2018-04-02T13:18:42.830Z,19.90
2018-04-02T13:21:13.410Z,16.83
2018-04-02T13:23:43.875Z,19.63
2018-04-02T13:26:14.347Z,19.87
2018-04-02T13:28:44.796Z,19.23
2018-04-02T13:31:15.247Z,24.33
2018-04-02T13:33:46.467Z,19.70
2018-04-02T13:36:16.934Z,16.80
2018-04-02T13:38:47.386Z,21.37
2018-04-02T13:41:18.764Z,34.93
2018-04-02T13:43:49.533Z,19.17
2018-04-02T13:46:20.024Z,22.03
2018-04-02T13:48:50.509Z,22.85
2018-04-02T13:51:20.971Z,24.80
2018-04-02T13:53:51.428Z,34.80
2018-04-02T13:56:23.686Z,27.80
2018-04-02T13:58:54.799Z,27.57
2018-04-02T14:01:25.268Z,35.57
2018-04-02T14:03:56.478Z,20.23
2018-04-02T14:06:26.959Z,24.80
2018-04-02T14:08:57.429Z,30.53
2018-04-02T14:11:27.914Z,28.37
2018-04-02T14:13:58.406Z,29.05
2018-04-02T14:16:28.845Z,26.90
2018-04-02T14:19:00.124Z,29.27
2018-04-02T14:21:30.590Z,32.87
2018-04-02T14:24:01.030Z,34.60
2018-04-02T14:26:31.797Z,33.17
2018-04-02T14:29:03.258Z,31.83
2018-04-02T14:31:33.785Z,25.23
2018-04-02T14:34:04.319Z,27.47
2018-04-02T14:36:34.794Z,25.77
2018-04-02T14:39:06.077Z,31.53
2018-04-02T14:41:37.307Z,36.07
2018-04-02T14:44:08.534Z,35.57
2018-04-02T14:46:38.985Z,30.27
2018-04-02T14:49:10.191Z,29.70
2018-04-02T14:51:40.642Z,27.30
2018-04-02T14:54:11.104Z,43.33
2018-04-02T14:56:41.584Z,35.83
2018-04-02T14:59:12.064Z,30.97
2018-04-02T15:01:43.448Z,34.93
2018-04-02T15:04:13.926Z,31.90
2018-04-02T15:06:46.087Z,29.80
2018-04-02T15:09:17.319Z,34.17
2018-04-02T15:11:48.583Z,33.57
2018-04-02T15:14:19.806Z,37.57
2018-04-02T15:16:50.262Z,34.38
2018-04-02T15:19:20.794Z,36.47
2018-04-02T15:21:51.251Z,34.50
2018-04-02T15:24:21.720Z,34.53
2018-04-02T15:26:52.182Z,44.33
2018-04-02T15:29:22.708Z,35.70
2018-04-02T15:31:53.200Z,29.08
2018-04-02T15:34:23.662Z,42.73
2018-04-02T15:36:54.185Z,36.87
2018-04-02T15:39:25.496Z,30.50
2018-04-02T15:41:57.060Z,34.10
2018-04-02T15:44:27.536Z,35.57
2018-04-02T15:46:58.047Z,32.50
2018-04-02T15:49:28.551Z,38.23
2018-04-02T15:52:00.733Z,34.30
2018-04-02T15:54:31.996Z,36.30
2018-04-02T15:57:02.456Z,37.50
2018-04-02T15:59:32.946Z,44.53
2018-04-02T16:02:03.410Z,43.28
2018-04-02T16:04:34.686Z,28.83
2018-04-02T16:07:05.158Z,31.23
2018-04-02T16:09:35.606Z,32.50
2018-04-02T16:12:06.088Z,35.03
2018-04-02T16:14:37.319Z,44.73
2018-04-02T16:17:07.828Z,39.27
2018-04-02T16:19:38.359Z,28.17
2018-04-02T16:22:08.838Z,31.67
2018-04-02T16:24:39.316Z,45.90
2018-04-02T16:27:10.657Z,33.75
2018-04-02T16:29:41.130Z,31.23
2018-04-02T16:32:11.583Z,28.33
2018-04-02T16:34:42.042Z,35.10
2018-04-02T16:37:12.486Z,28.57
2018-04-02T19:57:36.293Z,13.07
2018-04-02T20:00:06.490Z,20.37
2018-04-02T20:02:37.055Z,10.53
2018-04-02T20:05:06.900Z,19.27
2018-04-02T20:07:36.720Z,24.40
2018-04-02T20:10:06.693Z,25.23
2018-04-02T20:12:36.502Z,16.57
2018-04-02T20:15:06.338Z,8.82
2018-04-02T20:17:36.128Z,14.67
2018-04-02T20:20:06.217Z,11.45
2018-04-02T20:22:36.856Z,11.00
2018-04-02T20:25:07.420Z,11.60
2018-04-02T20:27:37.233Z,11.63
2018-04-02T20:30:07.025Z,15.85
2018-04-02T20:32:36.788Z,11.60
2018-04-02T20:35:06.558Z,22.30
2018-04-02T20:37:36.343Z,14.80
2018-04-02T20:42:40.865Z,11.77
2018-04-02T20:45:10.612Z,10.60
2018-04-02T20:47:40.495Z,14.70
2018-04-02T20:50:11.070Z,13.97
2018-04-02T20:52:40.895Z,15.10
2018-04-02T20:55:11.369Z,21.05
2018-04-02T20:57:41.941Z,15.40
2018-04-02T21:00:11.753Z,15.73
2018-04-02T21:02:41.575Z,15.30
2018-04-02T21:05:11.691Z,12.50
2018-04-02T21:07:41.814Z,15.55
2018-04-02T21:10:11.605Z,14.50
2018-04-02T21:12:41.389Z,13.27
2018-04-02T21:15:11.938Z,16.70
2018-04-02T21:17:42.371Z,21.23
2018-04-02T21:20:12.162Z,13.73
2018-04-02T21:22:42.796Z,17.93
2018-04-02T21:25:12.571Z,10.67
2018-04-02T21:27:42.422Z,16.60
2018-04-02T21:30:12.242Z,16.02
2018-04-02T21:32:42.036Z,17.30
2018-04-02T21:35:12.593Z,19.00
2018-04-02T21:37:42.529Z,14.30
2018-04-02T21:40:12.312Z,20.53
2018-04-02T21:42:42.093Z,24.57
2018-04-02T21:45:12.652Z,17.20
2018-04-02T21:47:42.492Z,17.40
2018-04-02T21:50:12.320Z,16.30
2018-04-02T21:52:42.174Z,18.10
2018-04-02T21:55:12.723Z,20.57
2018-04-02T21:57:42.706Z,19.10
2018-04-02T22:00:13.626Z,15.17
2018-04-02T22:02:43.406Z,21.57
2018-04-02T22:05:13.566Z,19.13
2018-04-02T22:07:43.482Z,17.60
2018-04-02T22:10:13.333Z,24.30
2018-04-02T22:12:43.914Z,18.95
2018-04-02T22:15:13.704Z,19.50
2018-04-02T22:17:46.026Z,19.23
2018-04-02T22:20:16.599Z,19.33
2018-04-02T22:22:46.509Z,17.23
2018-04-02T22:25:16.258Z,15.97
2018-04-02T22:27:46.652Z,15.73
2018-04-02T22:30:16.433Z,16.33
2018-04-02T22:32:46.240Z,20.80
2018-04-02T22:35:16.035Z,17.93
2018-04-02T22:37:46.593Z,13.30
2018-04-02T22:40:16.542Z,19.50
2018-04-02T22:42:48.316Z,14.90
2018-04-02T22:45:18.130Z,13.93
2018-04-02T22:47:47.901Z,13.57
2018-04-02T22:50:17.729Z,16.20
2018-04-02T22:52:47.575Z,19.23
2018-04-02T22:55:18.988Z,13.63
2018-04-02T22:57:48.854Z,15.87
2018-04-02T23:00:20.785Z,21.40
2018-04-02T23:02:50.738Z,14.73
2018-04-02T23:05:20.545Z,22.00
2018-04-02T23:07:52.014Z,16.03
2018-04-02T23:10:22.665Z,13.87
2018-04-02T23:12:52.459Z,16.37
2018-04-02T23:15:22.246Z,16.53
2018-04-02T23:17:52.079Z,15.40
2018-04-02T23:20:21.964Z,13.87
2018-04-02T23:22:55.064Z,16.80
2018-04-02T23:25:25.635Z,19.67
2018-04-02T23:27:56.217Z,16.63
2018-04-02T23:30:26.790Z,16.20
2018-04-02T23:32:56.636Z,19.10
2018-04-02T23:35:26.413Z,23.67
2018-04-02T23:37:56.159Z,17.90
2018-04-02T23:40:25.989Z,18.83
2018-04-02T23:42:56.600Z,14.33
2018-04-02T23:45:26.418Z,14.40
2018-04-02T23:47:56.234Z,22.73
2018-04-02T23:50:25.994Z,22.10
2018-04-02T23:52:55.883Z,25.10
2018-04-02T23:55:26.429Z,30.80
2018-04-02T23:57:56.542Z,21.40
